createdAt,value
2019-04-04T00:00:21.144Z,60.67
2019-04-04T00:01:21.542Z,61.08
2019-04-04T00:02:21.847Z,60.77
2019-04-04T00:03:22.227Z,61.08
2019-04-04T00:04:22.722Z,61.28
2019-04-04T00:05:25.586Z,61.10
2019-04-04T00:06:24.984Z,61.18
2019-04-04T00:07:23.639Z,61.31
2019-04-04T00:08:24.016Z,61.51
2019-04-04T00:09:24.369Z,61.61
2019-04-04T00:10:27.615Z,61.61
2019-04-04T00:11:25.104Z,61.61
2019-04-04T00:12:25.427Z,62.33
2019-04-04T00:13:25.801Z,61.41
2019-04-04T00:14:26.186Z,61.03
2019-04-04T00:15:26.479Z,61.65
2019-04-04T00:16:26.860Z,61.21
2019-04-04T00:17:27.179Z,62.36
2019-04-04T00:18:27.966Z,62.26
2019-04-04T00:19:29.823Z,62.36
2019-04-04T00:20:31.502Z,62.39
2019-04-04T00:21:28.656Z,62.66
2019-04-04T00:22:29.070Z,62.46
2019-04-04T00:23:29.293Z,62.66
2019-04-04T00:24:29.677Z,62.29
2019-04-04T00:25:30.046Z,63.21
2019-04-04T00:26:30.407Z,63.10
2019-04-04T00:27:30.760Z,63.31
2019-04-04T00:28:31.101Z,63.21
2019-04-04T00:29:31.455Z,62.70
2019-04-04T00:30:31.855Z,62.90
2019-04-04T00:31:32.200Z,62.80
2019-04-04T00:32:32.517Z,62.49
2019-04-04T00:33:32.878Z,62.49
2019-04-04T00:34:33.240Z,63.62
2019-04-04T00:35:33.555Z,63.10
2019-04-04T00:36:34.600Z,63.00
2019-04-04T00:37:35.866Z,62.80
2019-04-04T00:38:35.981Z,63.34
2019-04-04T00:39:34.978Z,63.72
2019-04-04T00:40:35.325Z,63.44
2019-04-04T00:41:35.715Z,63.24
2019-04-04T00:42:36.029Z,63.85
2019-04-04T00:43:36.378Z,64.06
2019-04-04T00:44:36.753Z,64.67
2019-04-04T00:45:37.088Z,64.60
2019-04-04T00:46:37.496Z,64.90
2019-04-04T00:47:37.890Z,64.60
2019-04-04T00:48:38.147Z,64.70
2019-04-04T00:49:38.516Z,65.01
2019-04-04T00:50:38.849Z,64.60
2019-04-04T00:51:39.647Z,65.01
2019-04-04T00:52:40.922Z,65.65
2019-04-04T00:53:42.724Z,65.34
2019-04-04T00:54:40.275Z,65.14
2019-04-04T00:55:40.731Z,65.52
2019-04-04T00:56:40.971Z,64.94
2019-04-04T00:57:41.340Z,66.06
2019-04-04T00:58:41.668Z,66.16
2019-04-04T00:59:42.049Z,65.55
2019-04-04T01:00:42.382Z,65.75
2019-04-04T01:01:42.755Z,65.55
2019-04-04T01:02:43.123Z,66.06
2019-04-04T01:03:43.518Z,66.06
2019-04-04T01:04:43.793Z,66.06
2019-04-04T01:05:44.147Z,65.96
2019-04-04T01:06:44.503Z,65.96
2019-04-04T01:07:45.077Z,66.27
2019-04-04T01:08:45.187Z,65.24
2019-04-04T01:09:45.901Z,65.17
2019-04-04T01:10:45.896Z,65.86
2019-04-04T01:11:46.312Z,65.99
2019-04-04T01:12:46.597Z,65.86
2019-04-04T01:13:46.949Z,66.40
2019-04-04T01:14:47.288Z,65.58
2019-04-04T01:15:47.626Z,65.68
2019-04-04T01:16:48.011Z,65.68
2019-04-04T01:17:48.359Z,65.89
2019-04-04T01:18:48.725Z,65.68
2019-04-04T01:19:49.764Z,66.40
2019-04-04T01:20:50.397Z,65.58
2019-04-04T01:21:52.989Z,66.19
2019-04-04T01:22:50.124Z,65.68
2019-04-04T01:23:50.467Z,66.71
2019-04-04T01:24:50.838Z,65.78
2019-04-04T01:25:51.172Z,66.30
2019-04-04T01:26:51.510Z,66.40
2019-04-04T01:27:51.922Z,65.99
2019-04-04T01:28:52.358Z,66.60
2019-04-04T01:29:52.632Z,66.53
2019-04-04T01:30:52.952Z,66.53
2019-04-04T01:31:53.306Z,66.71
2019-04-04T01:32:53.720Z,66.71
2019-04-04T01:33:54.039Z,66.53
2019-04-04T01:34:54.413Z,66.53
2019-04-04T01:35:54.743Z,66.40
2019-04-04T01:36:56.321Z,66.74
2019-04-04T01:37:56.114Z,66.63
2019-04-04T01:38:55.799Z,66.63
2019-04-04T01:39:56.163Z,66.84
2019-04-04T01:40:56.502Z,67.46
2019-04-04T01:41:56.833Z,67.05
2019-04-04T01:42:57.236Z,66.74
2019-04-04T01:44:04.956Z,66.84
2019-04-04T01:44:59.004Z,66.84
2019-04-04T01:45:58.255Z,66.97
2019-04-04T01:46:58.621Z,66.56
2019-04-04T01:47:58.986Z,66.67
2019-04-04T01:48:59.325Z,67.18
2019-04-04T01:49:59.694Z,67.79
2019-04-04T01:51:00.030Z,67.08
2019-04-04T01:52:00.384Z,66.87
2019-04-04T01:53:00.782Z,67.59
2019-04-04T01:54:01.648Z,67.59
2019-04-04T01:55:03.283Z,67.90
2019-04-04T01:56:01.776Z,67.93
2019-04-04T01:57:02.136Z,68.03
2019-04-04T01:58:02.502Z,68.41
2019-04-04T01:59:02.857Z,68.24
2019-04-04T02:00:03.197Z,68.34
2019-04-04T02:01:03.582Z,68.30
2019-04-04T02:02:03.956Z,68.34
2019-04-04T02:03:04.264Z,68.75
2019-04-04T02:04:04.597Z,68.13
2019-04-04T02:05:04.950Z,68.65
2019-04-04T02:06:05.327Z,68.75
2019-04-04T02:07:05.655Z,68.85
2019-04-04T02:08:06.024Z,68.34
2019-04-04T02:09:06.373Z,68.13
2019-04-04T02:10:06.838Z,68.85
2019-04-04T02:11:07.059Z,68.85
2019-04-04T02:12:07.827Z,68.88
2019-04-04T02:13:09.687Z,68.99
2019-04-04T02:14:08.146Z,68.88
2019-04-04T02:15:08.484Z,69.09
2019-04-04T02:16:08.800Z,69.09
2019-04-04T02:17:09.172Z,69.19
2019-04-04T02:18:09.625Z,69.29
2019-04-04T02:19:09.875Z,68.88
2019-04-04T02:20:10.232Z,69.40
2019-04-04T02:21:10.552Z,69.19
2019-04-04T02:22:10.921Z,69.29
2019-04-04T02:23:11.297Z,69.09
2019-04-04T02:24:11.638Z,68.78
2019-04-04T02:25:11.996Z,68.27
2019-04-04T02:26:12.341Z,68.99
2019-04-04T02:27:12.650Z,68.54
2019-04-04T02:28:13.040Z,68.88
2019-04-04T02:29:13.398Z,68.37
2019-04-04T02:30:16.040Z,69.19
2019-04-04T02:31:14.081Z,69.09
2019-04-04T02:32:14.431Z,68.68
2019-04-04T02:33:14.799Z,69.29
2019-04-04T02:34:15.212Z,69.29
2019-04-04T02:35:15.509Z,69.74
2019-04-04T02:36:16.723Z,69.64
2019-04-04T02:37:16.221Z,69.94
2019-04-04T02:38:16.578Z,69.84
2019-04-04T02:39:16.924Z,70.04
2019-04-04T02:40:17.315Z,70.04
2019-04-04T02:41:17.676Z,70.25
2019-04-04T02:42:21.116Z,70.36
2019-04-04T02:43:18.447Z,70.36
2019-04-04T02:44:18.718Z,70.56
2019-04-04T02:45:19.060Z,70.36
2019-04-04T02:46:19.428Z,70.49
2019-04-04T02:47:19.761Z,70.66
2019-04-04T02:48:23.419Z,70.59
2019-04-04T02:49:20.464Z,70.46
2019-04-04T02:50:20.797Z,70.66
2019-04-04T02:51:21.314Z,70.59
2019-04-04T02:52:21.553Z,70.90
2019-04-04T02:53:26.635Z,70.59
2019-04-04T02:54:24.618Z,70.70
2019-04-04T02:55:22.618Z,71.21
2019-04-04T02:56:22.990Z,70.90
2019-04-04T02:57:23.322Z,70.79
2019-04-04T02:58:23.687Z,71.51
2019-04-04T02:59:24.047Z,71.21
2019-04-04T03:00:26.728Z,70.79
2019-04-04T03:01:24.729Z,71.00
2019-04-04T03:02:25.110Z,70.90
2019-04-04T03:03:25.437Z,70.79
2019-04-04T03:04:25.794Z,70.90
2019-04-04T03:05:26.138Z,71.11
2019-04-04T03:06:26.476Z,71.51
2019-04-04T03:07:29.905Z,71.00
2019-04-04T03:08:27.192Z,71.31
2019-04-04T03:09:27.534Z,71.31
2019-04-04T03:10:27.873Z,71.00
2019-04-04T03:11:28.244Z,71.41
2019-04-04T03:12:28.570Z,70.79
2019-04-04T03:13:31.619Z,71.21
2019-04-04T03:14:29.308Z,71.83
2019-04-04T03:15:29.670Z,70.90
2019-04-04T03:16:30.057Z,71.11
2019-04-04T03:17:31.910Z,71.00
2019-04-04T03:18:30.711Z,71.00
2019-04-04T03:19:31.055Z,71.21
2019-04-04T03:20:31.404Z,71.00
2019-04-04T03:21:31.776Z,71.21
2019-04-04T03:22:32.103Z,71.24
2019-04-04T03:23:33.828Z,71.34
2019-04-04T03:24:32.929Z,71.66
2019-04-04T03:25:33.187Z,71.34
2019-04-04T03:26:33.529Z,71.34
2019-04-04T03:27:33.878Z,71.14
2019-04-04T03:28:34.224Z,71.45
2019-04-04T03:29:37.297Z,71.24
2019-04-04T03:30:34.954Z,71.96
2019-04-04T03:31:37.504Z,71.66
2019-04-04T03:32:35.734Z,71.75
2019-04-04T03:33:35.968Z,71.66
2019-04-04T03:34:36.343Z,71.75
2019-04-04T03:35:36.693Z,71.66
2019-04-04T03:36:37.066Z,71.34
2019-04-04T03:37:40.365Z,71.24
2019-04-04T03:38:37.745Z,71.34
2019-04-04T03:39:38.123Z,71.75
2019-04-04T03:40:41.595Z,71.24
2019-04-04T03:41:38.819Z,71.21
2019-04-04T03:42:43.573Z,70.94
2019-04-04T03:43:39.514Z,71.86
2019-04-04T03:44:39.891Z,71.14
2019-04-04T03:45:40.223Z,71.24
2019-04-04T03:46:40.613Z,71.21
2019-04-04T03:47:43.672Z,71.45
2019-04-04T03:48:41.323Z,71.45
2019-04-04T03:49:41.677Z,71.24
2019-04-04T03:50:42.008Z,70.94
2019-04-04T03:51:42.383Z,70.94
2019-04-04T03:52:44.326Z,70.94
2019-04-04T03:53:43.087Z,71.00
2019-04-04T03:54:43.567Z,71.34
2019-04-04T03:55:43.811Z,71.14
2019-04-04T03:56:44.170Z,71.14
2019-04-04T03:57:44.585Z,71.24
2019-04-04T03:58:44.844Z,71.34
2019-04-04T03:59:45.216Z,71.14
2019-04-04T04:00:45.563Z,71.75
2019-04-04T04:01:46.799Z,71.79
2019-04-04T04:02:49.777Z,71.75
2019-04-04T04:03:46.607Z,71.86
2019-04-04T04:04:46.989Z,71.89
2019-04-04T04:05:47.443Z,71.75
2019-04-04T04:06:47.662Z,72.00
2019-04-04T04:07:48.818Z,71.89
2019-04-04T04:08:48.370Z,71.75
2019-04-04T04:09:48.774Z,71.89
2019-04-04T04:10:49.076Z,71.89
2019-04-04T04:11:49.440Z,72.00
2019-04-04T04:12:49.772Z,72.61
2019-04-04T04:13:50.233Z,72.72
2019-04-04T04:14:53.820Z,72.61
2019-04-04T04:15:50.849Z,72.20
2019-04-04T04:16:51.202Z,72.00
2019-04-04T04:17:51.534Z,72.61
2019-04-04T04:18:54.399Z,72.09
2019-04-04T04:19:52.249Z,72.00
2019-04-04T04:20:52.604Z,72.30
2019-04-04T04:21:53.056Z,72.24
2019-04-04T04:22:53.279Z,71.89
2019-04-04T04:23:56.595Z,72.00
2019-04-04T04:24:53.991Z,72.09
2019-04-04T04:25:54.340Z,72.20
2019-04-04T04:26:54.943Z,72.00
2019-04-04T04:27:55.054Z,72.51
2019-04-04T04:28:55.406Z,72.51
2019-04-04T04:29:55.832Z,71.82
2019-04-04T04:30:56.145Z,72.20
2019-04-04T04:31:56.485Z,72.30
2019-04-04T04:32:57.346Z,72.81
2019-04-04T04:33:58.432Z,71.89
2019-04-04T04:34:57.539Z,72.41
2019-04-04T04:35:58.648Z,72.61
2019-04-04T04:36:58.213Z,72.20
2019-04-04T04:37:58.592Z,71.69
2019-04-04T04:38:59.863Z,72.30
2019-04-04T04:39:59.300Z,71.79
2019-04-04T04:40:59.639Z,72.00
2019-04-04T04:42:00.012Z,72.61
2019-04-04T04:43:00.969Z,72.41
2019-04-04T04:44:02.626Z,72.92
2019-04-04T04:45:01.079Z,72.51
2019-04-04T04:46:01.435Z,71.89
2019-04-04T04:47:01.877Z,72.09
2019-04-04T04:48:02.138Z,72.44
2019-04-04T04:49:03.303Z,72.20
2019-04-04T04:50:02.859Z,71.69
2019-04-04T04:51:03.216Z,72.51
2019-04-04T04:52:03.527Z,72.24
2019-04-04T04:53:03.912Z,72.30
2019-04-04T04:54:04.263Z,72.51
2019-04-04T04:55:04.713Z,72.51
2019-04-04T04:56:04.964Z,72.51
2019-04-04T04:57:05.310Z,72.34
2019-04-04T04:58:09.773Z,72.30
2019-04-04T04:59:06.014Z,72.81
2019-04-04T05:00:06.385Z,72.51
2019-04-04T05:01:06.738Z,72.41
2019-04-04T05:02:07.091Z,72.51
2019-04-04T05:03:07.482Z,72.30
2019-04-04T05:04:07.742Z,72.20
2019-04-04T05:05:08.134Z,72.24
2019-04-04T05:06:08.473Z,72.72
2019-04-04T05:07:08.846Z,72.41
2019-04-04T05:08:09.685Z,72.00
2019-04-04T05:09:09.531Z,72.20
2019-04-04T05:10:09.888Z,71.79
2019-04-04T05:11:10.291Z,71.89
2019-04-04T05:12:10.658Z,71.75
2019-04-04T05:13:10.950Z,71.79
2019-04-04T05:14:11.282Z,71.75
2019-04-04T05:15:11.660Z,71.24
2019-04-04T05:16:12.026Z,71.34
2019-04-04T05:17:12.383Z,71.45
2019-04-04T05:18:16.354Z,71.24
2019-04-04T05:19:13.076Z,71.04
2019-04-04T05:20:13.542Z,71.04
2019-04-04T05:21:24.160Z,71.34
2019-04-04T05:22:15.138Z,71.14
2019-04-04T05:23:15.464Z,70.52
2019-04-04T05:24:16.043Z,70.90
2019-04-04T05:25:15.196Z,70.73
2019-04-04T05:26:15.524Z,70.49
2019-04-04T05:27:15.904Z,70.08
2019-04-04T05:28:16.358Z,69.87
2019-04-04T05:29:16.578Z,69.94
2019-04-04T05:30:18.886Z,69.77
2019-04-04T05:31:18.108Z,69.98
2019-04-04T05:32:20.857Z,69.56
2019-04-04T05:33:18.009Z,69.74
2019-04-04T05:34:18.350Z,69.98
2019-04-04T05:35:18.716Z,69.94
2019-04-04T05:36:19.090Z,69.74
2019-04-04T05:37:19.393Z,69.74
2019-04-04T05:38:19.760Z,69.29
2019-04-04T05:39:20.124Z,68.99
2019-04-04T05:40:23.240Z,69.12
2019-04-04T05:41:20.825Z,68.99
2019-04-04T05:42:21.160Z,68.57
2019-04-04T05:43:21.503Z,68.68
2019-04-04T05:44:21.895Z,68.78
2019-04-04T05:45:22.230Z,68.78
2019-04-04T05:46:22.596Z,68.68
2019-04-04T05:47:23.319Z,68.78
2019-04-04T05:48:23.300Z,68.57
2019-04-04T05:49:23.625Z,68.27
2019-04-04T05:50:24.001Z,68.27
2019-04-04T05:51:24.503Z,68.13
2019-04-04T05:52:24.726Z,67.62
2019-04-04T05:53:25.192Z,67.44
2019-04-04T05:54:25.419Z,67.93
2019-04-04T05:55:25.781Z,67.72
2019-04-04T05:56:26.152Z,68.03
2019-04-04T05:57:26.476Z,67.72
2019-04-04T05:58:26.849Z,67.79
2019-04-04T05:59:27.168Z,67.21
2019-04-04T06:00:28.178Z,66.90
2019-04-04T06:01:28.072Z,67.11
2019-04-04T06:02:28.247Z,67.79
2019-04-04T06:03:28.865Z,66.77
2019-04-04T06:04:33.703Z,66.97
2019-04-04T06:05:34.224Z,66.87
2019-04-04T06:06:34.158Z,66.97
2019-04-04T06:07:36.335Z,66.77
2019-04-04T06:08:38.774Z,67.18
2019-04-04T06:09:35.883Z,67.49
2019-04-04T06:10:31.126Z,66.33
2019-04-04T06:11:31.431Z,66.53
2019-04-04T06:12:31.803Z,66.84
2019-04-04T06:13:32.176Z,66.05
2019-04-04T06:14:32.512Z,66.63
2019-04-04T06:15:32.947Z,65.61
2019-04-04T06:16:35.015Z,65.58
2019-04-04T06:17:33.695Z,65.81
2019-04-04T06:18:33.933Z,64.97
2019-04-04T06:19:34.276Z,66.09
2019-04-04T06:20:34.647Z,66.81
2019-04-04T06:21:34.982Z,65.48
2019-04-04T06:22:35.325Z,65.48
2019-04-04T06:23:35.702Z,65.04
2019-04-04T06:24:36.054Z,64.97
2019-04-04T06:25:36.463Z,65.27
2019-04-04T06:26:38.111Z,65.07
2019-04-04T06:27:39.844Z,65.04
2019-04-04T06:28:37.454Z,65.14
2019-04-04T06:29:37.806Z,64.62
2019-04-04T06:30:43.170Z,64.62
2019-04-04T06:31:39.520Z,64.22
2019-04-04T06:32:39.165Z,64.42
2019-04-04T06:33:39.271Z,64.18
2019-04-04T06:34:39.574Z,64.39
2019-04-04T06:35:40.093Z,64.18
2019-04-04T06:36:40.315Z,63.17
2019-04-04T06:37:40.673Z,63.65
2019-04-04T06:38:41.041Z,63.34
2019-04-04T06:39:41.371Z,62.62
2019-04-04T06:40:41.741Z,62.73
2019-04-04T06:41:42.086Z,63.00
2019-04-04T06:42:42.570Z,63.00
2019-04-04T06:43:42.803Z,62.70
2019-04-04T06:44:43.741Z,62.59
2019-04-04T06:45:46.326Z,61.88
2019-04-04T06:46:43.838Z,61.47
2019-04-04T06:47:44.230Z,61.44
2019-04-04T06:48:44.580Z,61.65
2019-04-04T06:49:45.717Z,60.93
2019-04-04T06:50:45.362Z,61.03
2019-04-04T06:51:46.362Z,61.00
2019-04-04T06:52:45.996Z,60.69
2019-04-04T06:53:46.866Z,60.39
2019-04-04T06:54:46.704Z,60.28
2019-04-04T06:55:47.059Z,59.95
2019-04-04T06:56:47.407Z,59.57
2019-04-04T06:57:50.939Z,60.39
2019-04-04T06:58:48.235Z,59.95
2019-04-04T06:59:50.901Z,59.75
2019-04-04T07:00:50.085Z,58.93
2019-04-04T07:01:50.019Z,60.26
2019-04-04T07:02:49.558Z,59.41
2019-04-04T07:03:52.488Z,59.62
2019-04-04T07:04:50.250Z,58.70
2019-04-04T07:05:50.608Z,59.31
2019-04-04T07:06:51.016Z,59.11
2019-04-04T07:07:51.317Z,59.00
2019-04-04T07:08:51.658Z,58.39
2019-04-04T07:09:51.998Z,58.98
2019-04-04T07:10:57.831Z,58.98
2019-04-04T07:11:53.722Z,58.87
2019-04-04T07:13:04.755Z,58.67
2019-04-04T07:13:54.441Z,58.64
2019-04-04T07:14:53.830Z,58.54
2019-04-04T07:16:06.285Z,58.23
2019-04-04T07:16:55.568Z,58.44
2019-04-04T07:17:54.857Z,58.14
2019-04-04T07:18:55.196Z,57.90
2019-04-04T07:19:55.517Z,58.62
2019-04-04T07:20:55.890Z,58.72
2019-04-04T07:21:56.257Z,59.53
2019-04-04T07:22:56.627Z,58.51
2019-04-04T07:23:59.297Z,57.80
2019-04-04T07:24:57.277Z,57.80
2019-04-04T07:25:57.653Z,57.67
2019-04-04T07:26:58.019Z,57.78
2019-04-04T07:27:58.395Z,57.87
2019-04-04T07:28:58.721Z,57.78
2019-04-04T07:29:59.055Z,57.87
2019-04-04T07:31:01.518Z,56.93
2019-04-04T07:31:59.919Z,58.67
2019-04-04T07:33:00.139Z,57.11
2019-04-04T07:34:00.476Z,56.63
2019-04-04T07:35:00.814Z,57.42
2019-04-04T07:36:01.142Z,57.82
2019-04-04T07:37:01.551Z,57.01
2019-04-04T07:38:01.901Z,56.57
2019-04-04T07:39:02.243Z,55.76
2019-04-04T07:40:03.189Z,55.12
2019-04-04T07:41:02.912Z,54.72
2019-04-04T07:42:03.275Z,56.04
2019-04-04T07:43:03.647Z,55.73
2019-04-04T07:44:04.020Z,54.51
2019-04-04T07:45:04.329Z,54.41
2019-04-04T07:46:15.678Z,54.92
2019-04-04T07:47:06.070Z,54.61
2019-04-04T07:48:05.429Z,54.92
2019-04-04T07:49:05.775Z,54.59
2019-04-04T07:50:06.098Z,54.08
2019-04-04T07:51:06.449Z,55.10
2019-04-04T07:52:06.820Z,55.20
2019-04-04T07:53:07.161Z,53.98
2019-04-04T07:54:07.973Z,54.28
2019-04-04T07:55:09.998Z,54.46
2019-04-04T07:56:08.236Z,54.16
2019-04-04T07:57:08.899Z,53.78
2019-04-04T07:58:09.001Z,54.16
2019-04-04T07:59:09.377Z,53.85
2019-04-04T08:00:09.712Z,53.96
2019-04-04T08:01:10.074Z,53.85
2019-04-04T08:02:10.448Z,53.96
2019-04-04T08:03:10.774Z,54.03
2019-04-04T08:04:11.165Z,53.75
2019-04-04T08:05:12.916Z,52.91
2019-04-04T08:06:11.841Z,54.03
2019-04-04T08:07:12.212Z,52.91
2019-04-04T08:08:12.540Z,51.98
2019-04-04T08:09:12.897Z,53.19
2019-04-04T08:10:20.417Z,52.89
2019-04-04T08:11:14.631Z,51.95
2019-04-04T08:12:14.008Z,52.05
2019-04-04T08:13:14.438Z,51.85
2019-04-04T08:14:14.716Z,51.85
2019-04-04T08:15:15.036Z,51.85
2019-04-04T08:16:15.407Z,51.34
2019-04-04T08:17:18.653Z,51.85
2019-04-04T08:18:16.109Z,51.62
2019-04-04T08:19:16.473Z,51.72
2019-04-04T08:20:16.842Z,51.01
2019-04-04T08:21:17.208Z,51.32
2019-04-04T08:22:17.609Z,51.09
2019-04-04T08:23:17.881Z,50.68
2019-04-04T08:24:18.217Z,50.99
2019-04-04T08:25:18.596Z,51.12
2019-04-04T08:26:18.916Z,50.79
2019-04-04T08:27:19.272Z,50.59
2019-04-04T08:28:19.623Z,50.28
2019-04-04T08:29:20.023Z,50.48
2019-04-04T08:30:20.384Z,50.68
2019-04-04T08:31:20.705Z,50.46
2019-04-04T08:32:21.061Z,51.27
2019-04-04T08:33:21.410Z,50.86
2019-04-04T08:34:21.771Z,50.66
2019-04-04T08:35:22.169Z,50.35
2019-04-04T08:36:22.492Z,50.05
2019-04-04T08:37:22.886Z,49.55
2019-04-04T08:38:23.270Z,49.85
2019-04-04T08:39:23.561Z,49.75
2019-04-04T08:40:23.907Z,49.75
2019-04-04T08:41:24.243Z,49.22
2019-04-04T08:42:24.615Z,50.03
2019-04-04T08:43:24.930Z,49.52
2019-04-04T08:44:25.314Z,49.32
2019-04-04T08:45:25.730Z,49.11
2019-04-04T08:46:26.118Z,48.61
2019-04-04T08:47:26.375Z,49.22
2019-04-04T08:48:26.691Z,49.19
2019-04-04T08:49:27.072Z,49.19
2019-04-04T08:50:27.454Z,48.69
2019-04-04T08:51:27.770Z,48.79
2019-04-04T08:52:28.139Z,48.18
2019-04-04T08:53:38.922Z,49.19
2019-04-04T08:54:29.933Z,49.19
2019-04-04T08:55:29.178Z,48.90
2019-04-04T08:56:29.514Z,48.39
2019-04-04T08:57:29.892Z,48.69
2019-04-04T08:58:30.229Z,48.59
2019-04-04T08:59:30.602Z,48.59
2019-04-04T09:00:30.932Z,47.96
2019-04-04T09:01:31.285Z,48.39
2019-04-04T09:02:31.686Z,48.26
2019-04-04T09:03:31.974Z,47.35
2019-04-04T09:04:32.350Z,47.55
2019-04-04T09:05:32.677Z,47.45
2019-04-04T09:06:33.009Z,47.75
2019-04-04T09:07:33.389Z,47.35
2019-04-04T09:08:33.735Z,47.75
2019-04-04T09:09:34.625Z,48.34
2019-04-04T09:10:34.503Z,47.53
2019-04-04T09:11:34.829Z,46.92
2019-04-04T09:12:35.144Z,47.94
2019-04-04T09:13:35.512Z,47.74
2019-04-04T09:14:35.887Z,47.43
2019-04-04T09:15:36.233Z,46.92
2019-04-04T09:16:36.575Z,46.83
2019-04-04T09:17:36.908Z,47.13
2019-04-04T09:18:37.301Z,47.13
2019-04-04T09:19:38.020Z,46.83
2019-04-04T09:20:38.010Z,46.20
2019-04-04T09:21:38.344Z,46.32
2019-04-04T09:22:40.511Z,46.52
2019-04-04T09:23:39.066Z,47.11
2019-04-04T09:24:39.423Z,47.03
2019-04-04T09:25:40.759Z,46.62
2019-04-04T09:26:40.114Z,46.30
2019-04-04T09:27:40.579Z,46.09
2019-04-04T09:28:40.821Z,46.50
2019-04-04T09:29:41.161Z,46.60
2019-04-04T09:30:41.535Z,46.60
2019-04-04T09:31:41.847Z,46.40
2019-04-04T09:32:42.223Z,46.09
2019-04-04T09:33:42.577Z,46.20
2019-04-04T09:34:42.926Z,46.09
2019-04-04T09:35:43.351Z,46.60
2019-04-04T09:36:43.606Z,46.50
2019-04-04T09:37:43.968Z,46.09
2019-04-04T09:38:44.318Z,45.99
2019-04-04T09:39:44.659Z,45.87
2019-04-04T09:40:45.048Z,46.78
2019-04-04T09:41:45.374Z,46.70
2019-04-04T09:42:45.721Z,45.57
2019-04-04T09:43:46.119Z,45.67
2019-04-04T09:44:46.398Z,45.67
2019-04-04T09:45:46.811Z,46.98
2019-04-04T09:46:47.133Z,46.37
2019-04-04T09:47:47.485Z,46.28
2019-04-04T09:48:47.856Z,46.07
2019-04-04T09:49:48.189Z,45.77
2019-04-04T09:50:48.555Z,45.97
2019-04-04T09:51:48.899Z,45.75
2019-04-04T09:52:49.338Z,45.04
2019-04-04T09:53:53.312Z,46.58
2019-04-04T09:54:49.951Z,45.85
2019-04-04T09:55:50.315Z,44.54
2019-04-04T09:56:50.656Z,44.54
2019-04-04T09:57:51.026Z,44.43
2019-04-04T09:58:51.399Z,44.64
2019-04-04T09:59:51.731Z,44.84
2019-04-04T10:00:52.190Z,44.94
2019-04-04T10:01:52.428Z,44.54
2019-04-04T10:02:52.784Z,44.62
2019-04-04T10:03:53.161Z,44.71
2019-04-04T10:04:53.497Z,44.42
2019-04-04T10:05:53.869Z,44.92
2019-04-04T10:06:54.184Z,45.14
2019-04-04T10:07:54.553Z,45.45
2019-04-04T10:08:55.034Z,44.54
2019-04-04T10:09:55.255Z,45.04
2019-04-04T10:10:55.641Z,45.04
2019-04-04T10:11:55.951Z,44.11
2019-04-04T10:12:56.307Z,44.51
2019-04-04T10:13:56.691Z,44.71
2019-04-04T10:14:57.023Z,45.02
2019-04-04T10:15:57.401Z,43.79
2019-04-04T10:16:57.765Z,43.28
2019-04-04T10:17:58.054Z,43.38
2019-04-04T10:18:58.435Z,43.69
2019-04-04T10:19:58.793Z,43.28
2019-04-04T10:21:10.889Z,43.37
2019-04-04T10:22:00.512Z,42.55
2019-04-04T10:22:59.870Z,43.37
2019-04-04T10:24:00.247Z,42.55
2019-04-04T10:25:00.583Z,42.86
2019-04-04T10:26:00.987Z,42.94
2019-04-04T10:27:01.301Z,42.24
2019-04-04T10:28:01.631Z,42.84
2019-04-04T10:29:02.016Z,42.24
2019-04-04T10:30:02.329Z,42.03
2019-04-04T10:31:02.708Z,42.13
2019-04-04T10:32:03.076Z,42.44
2019-04-04T10:33:03.425Z,42.24
2019-04-04T10:34:03.877Z,42.01
2019-04-04T10:35:04.106Z,42.21
2019-04-04T10:41:02.393Z,42.60
2019-04-04T10:42:02.746Z,42.70
2019-04-04T10:43:03.115Z,42.19
2019-04-04T10:44:03.477Z,42.70
2019-04-04T10:45:03.834Z,42.80
2019-04-04T10:46:04.235Z,42.19
2019-04-04T10:47:04.529Z,41.97
2019-04-04T10:48:04.859Z,41.47
2019-04-04T10:49:08.131Z,41.67
2019-04-04T10:50:05.571Z,41.37
2019-04-04T10:51:05.927Z,41.25
2019-04-04T10:52:06.293Z,41.57
2019-04-04T10:53:06.638Z,41.17
2019-04-04T10:54:07.126Z,41.15
2019-04-04T10:55:07.354Z,40.75
2019-04-04T10:56:07.691Z,40.34
2019-04-04T10:57:08.095Z,41.25
2019-04-04T10:58:08.445Z,41.23
2019-04-04T10:59:08.813Z,40.62
2019-04-04T11:00:09.154Z,40.83
2019-04-04T11:01:09.746Z,39.62
2019-04-04T11:02:09.950Z,40.70
2019-04-04T11:03:10.164Z,39.70
2019-04-04T11:04:10.557Z,40.00
2019-04-04T11:05:10.894Z,40.30
2019-04-04T11:06:11.250Z,39.80
2019-04-04T11:07:11.620Z,39.90
2019-04-04T11:08:11.966Z,39.70
2019-04-04T11:09:12.309Z,40.00
2019-04-04T11:10:12.717Z,40.70
2019-04-04T11:11:12.995Z,40.30
2019-04-04T11:12:13.369Z,39.60
2019-04-04T11:13:13.713Z,40.11
2019-04-04T11:14:14.079Z,39.80
2019-04-04T11:15:14.399Z,39.70
2019-04-04T11:16:14.765Z,39.20
2019-04-04T11:17:15.144Z,38.68
2019-04-04T11:18:15.504Z,39.10
2019-04-04T11:19:15.883Z,39.30
2019-04-04T11:20:16.164Z,38.79
2019-04-04T11:21:16.535Z,38.79
2019-04-04T11:22:16.904Z,39.18
2019-04-04T11:23:17.241Z,40.11
2019-04-04T11:24:17.602Z,39.10
2019-04-04T11:25:17.948Z,38.79
2019-04-04T11:26:18.287Z,39.60
2019-04-04T11:27:18.753Z,39.30
2019-04-04T11:28:19.007Z,39.50
2019-04-04T11:29:19.373Z,39.40
2019-04-04T11:30:19.686Z,40.28
2019-04-04T11:31:20.055Z,38.98
2019-04-04T11:32:20.433Z,39.18
2019-04-04T11:33:20.800Z,38.38
2019-04-04T11:34:21.145Z,38.48
2019-04-04T11:35:21.579Z,38.58
2019-04-04T11:36:21.805Z,38.88
2019-04-04T11:37:22.183Z,38.28
2019-04-04T11:38:22.535Z,38.26
2019-04-04T11:39:22.890Z,38.36
2019-04-04T11:40:23.237Z,37.76
2019-04-04T11:41:23.584Z,37.85
2019-04-04T11:42:23.939Z,37.85
2019-04-04T11:43:24.355Z,37.76
2019-04-04T11:44:24.644Z,37.13
2019-04-04T11:45:24.984Z,37.54
2019-04-04T11:46:25.337Z,37.24
2019-04-04T11:47:25.692Z,36.83
2019-04-04T11:48:26.047Z,37.74
2019-04-04T11:49:26.408Z,36.93
2019-04-04T11:50:26.748Z,37.22
2019-04-04T11:51:27.132Z,36.82
2019-04-04T11:52:27.490Z,36.92
2019-04-04T11:53:27.842Z,37.22
2019-04-04T11:54:28.162Z,37.42
2019-04-04T11:55:28.516Z,37.40
2019-04-04T11:56:28.873Z,37.40
2019-04-04T11:57:29.239Z,36.80
2019-04-04T11:58:29.594Z,36.30
2019-04-04T11:59:29.952Z,35.10
2019-04-04T12:00:30.389Z,35.38
2019-04-04T12:01:30.652Z,35.68
2019-04-04T12:02:32.540Z,35.68
2019-04-04T12:03:31.341Z,35.58
2019-04-04T12:04:31.712Z,35.68
2019-04-04T12:05:32.081Z,35.58
2019-04-04T12:06:32.413Z,35.78
2019-04-04T12:07:32.791Z,35.88
2019-04-04T12:08:33.261Z,35.78
2019-04-04T12:09:33.462Z,36.08
2019-04-04T12:10:33.832Z,36.18
2019-04-04T12:11:34.175Z,35.88
2019-04-04T12:12:34.538Z,36.18
2019-04-04T12:13:34.885Z,35.58
2019-04-04T12:14:35.249Z,35.58
2019-04-04T12:15:35.589Z,35.68
2019-04-04T12:16:35.992Z,36.18
2019-04-04T12:17:36.294Z,35.28
2019-04-04T12:18:36.634Z,35.38
2019-04-04T12:19:37.006Z,34.98
2019-04-04T12:20:39.142Z,34.38
2019-04-04T12:21:37.702Z,35.10
2019-04-04T12:22:38.068Z,35.30
2019-04-04T12:23:39.964Z,34.71
2019-04-04T12:24:40.460Z,34.59
2019-04-04T12:25:39.128Z,35.01
2019-04-04T12:26:39.442Z,35.60
2019-04-04T12:27:39.839Z,34.99
2019-04-04T12:28:40.172Z,35.89
2019-04-04T12:29:40.535Z,35.80
2019-04-04T12:30:40.899Z,35.89
2019-04-04T12:31:41.231Z,35.68
2019-04-04T12:32:41.635Z,35.18
2019-04-04T12:33:42.049Z,35.68
2019-04-04T12:34:42.330Z,34.88
2019-04-04T12:35:42.687Z,35.28
2019-04-04T12:36:43.021Z,34.96
2019-04-04T12:37:43.384Z,34.46
2019-04-04T12:38:43.725Z,35.38
2019-04-04T12:39:44.370Z,35.16
2019-04-04T12:40:44.706Z,35.36
2019-04-04T12:41:44.962Z,34.46
2019-04-04T12:42:45.163Z,33.44
2019-04-04T12:43:45.500Z,33.94
2019-04-04T12:44:45.910Z,34.24
2019-04-04T12:45:46.248Z,34.93
2019-04-04T12:46:46.609Z,35.03
2019-04-04T12:47:46.951Z,35.13
2019-04-04T12:48:47.290Z,34.43
2019-04-04T12:49:47.724Z,34.21
2019-04-04T12:50:48.467Z,34.41
2019-04-04T12:51:48.359Z,34.61
2019-04-04T12:52:48.707Z,34.41
2019-04-04T12:53:49.044Z,33.21
2019-04-04T12:54:49.406Z,33.61
2019-04-04T12:55:49.769Z,32.91
2019-04-04T12:56:50.117Z,32.91
2019-04-04T12:57:50.535Z,32.89
2019-04-04T12:58:50.805Z,33.29
2019-04-04T12:59:51.210Z,33.20
2019-04-04T13:00:51.519Z,32.59
2019-04-04T13:01:51.876Z,32.89